Flight Track Log - Related Links

Times and Time Zones

All times are in EDT time to prevent confusion due to time zone crossing. See the GTI110 flight status page for this flight to view local times or setup timezone preferences in your user account.

Time Position Orientation Groundspeed Altitude Reporting Facility
EDT Latitude Longitude Course Direction KTS MPH feet Rate Location/Type
Fri 12:36:03 AM 33.6500 -84.4667 270° West 174 200 2,600  Level Atlanta TRACON
Fri 12:37:03 AM 33.6500 -84.5333 270° West 232 267 4,500 2,350 Climbing Atlanta TRACON
Fri 12:38:03 AM 33.7167 -84.5333 360° North 286 329 7,300 2,710 Climbing Atlanta TRACON
Fri 12:39:38 AM 33.8331 -84.4939 16° North 283 326 11,500 2,594 Climbing Atlanta Center
Fri 12:40:38 AM 33.9397 -84.4444 21° North 350 403 14,000 2,600 Climbing Atlanta Center
Fri 12:41:38 AM 34.0358 -84.3997 21° North 351 404 16,700 2,433 Climbing Atlanta Center
Fri 12:43:38 AM 34.2364 -84.3050 21° North 405 466 21,300 2,267 Climbing Atlanta Center
Fri 12:44:38 AM 34.3492 -84.2653 16° North 416 479 23,500 2,150 Climbing Atlanta Center
Fri 12:45:38 AM 34.4703 -84.2378 11° North 431 496 25,600 2,100 Climbing Atlanta Center
Fri 12:46:38 AM 34.5978 -84.2103 10° North 448 516 27,700 1,900 Climbing Atlanta Center
Fri 12:47:38 AM 34.7208 -84.1828 10° North 449 517 29,400 1,550 Climbing Atlanta Center
Fri 12:48:38 AM 34.8522 -84.1528 11° North 454 522 30,800 1,600 Climbing Atlanta Center
Fri 12:49:38 AM 34.9839 -84.1200 12° North 470 541 32,600 1,100 Climbing Atlanta Center
Fri 12:50:38 AM 35.1133 -84.0922 10° North 470 541 33,000 200 Climbing Atlanta Center
Fri 12:51:38 AM 35.2447 -84.0997 357° North 470 541 33,000  Level Atlanta Center
Fri 12:52:38 AM 35.3803 -84.1203 353° North 475 547 33,000  Level Atlanta Center
Fri 12:53:38 AM 35.5158 -84.1433 352° North 485 558 33,000  Level Atlanta Center
Fri 12:54:38 AM 35.6472 -84.1639 353° North 485 558 33,000  Level Atlanta Center
Fri 12:55:38 AM 35.7808 -84.1822 354° North 485 558 33,000  Level Atlanta Center
Fri 12:56:38 AM 35.9164 -84.2028 353° North 485 558 33,000  Level Atlanta Center
Fri 12:57:38 AM 36.0519 -84.2236 353° North 485 558 33,000  Level Atlanta Center
Fri 12:58:26 AM 36.1503 -84.2367 354° North 483 556 33,000  Level Indianapolis Center
Fri 12:59:27 AM 36.3097 -84.2622 353° North 485 558 33,000  Level Indianapolis Center
Fri 01:00:27 AM 36.4425 -84.2836 353° North 484 557 33,000  Level Indianapolis Center
Fri 01:01:28 AM 36.5606 -84.3031 352° North 485 558 33,000  Level Indianapolis Center
Fri 01:02:28 AM 36.6942 -84.3239 353° North 482 555 33,000  Level Indianapolis Center
Fri 01:03:29 AM 36.8275 -84.3453 353° North 481 554 33,000  Level Indianapolis Center
Fri 01:04:29 AM 36.9614 -84.3664 353° North 482 555 33,000  Level Indianapolis Center
Fri 01:05:29 AM 37.0944 -84.3881 353° North 480 552 33,000 -1,339 Level Indianapolis Center
Fri 01:06:30 AM 37.2275 -84.4097 353° North 480 552 30,300 -2,331 Descending Indianapolis Center
Fri 01:07:30 AM 37.3608 -84.4311 353° North 479 551 28,300 -2,132 Descending Indianapolis Center
Fri 01:08:31 AM 37.4872 -84.4506 353° North 460 529 26,000 -2,331 Descending Indianapolis Center
Fri 01:09:31 AM 37.6100 -84.4708 353° North 446 513 23,600 -2,231 Descending Indianapolis Center
Fri 01:10:32 AM 37.7294 -84.4906 353° North 436 502 21,500 -1,785 Descending Indianapolis Center
Fri 01:11:32 AM 37.8472 -84.5083 353° North 426 490 20,000 -1,400 Descending Indianapolis Center
Fri 01:12:32 AM 37.9622 -84.5292 352° North 419 482 18,700 -1,190 Descending Indianapolis Center
Fri 01:13:33 AM 38.0764 -84.5475 353° North 414 476 17,600 -1,091 Descending Indianapolis Center
Fri 01:14:33 AM 38.1897 -84.5647 353° North 411 473 16,500 -1,100 Descending Indianapolis Center
Fri 01:15:33 AM 38.2992 -84.5833 352° North 396 456 15,400 -1,041 Descending Indianapolis Center
Fri 01:16:34 AM 38.4067 -84.6014 353° North 390 449 14,400 -1,289 Descending Indianapolis Center
Fri 01:17:34 AM 38.5103 -84.6186 353° North 376 433 12,800 -1,750 Descending Indianapolis Center
Fri 01:18:34 AM 38.6111 -84.6356 353° North 366 421 10,900 -1,339 Descending Indianapolis Center
Fri 01:19:35 AM 38.7061 -84.6567 350° North 332 382 10,100 -992 Descending Indianapolis Center
Fri 01:20:35 AM 38.7711 -84.7136 326° Northwest 288 331 8,900 -1,100 Descending Indianapolis Center
Fri 01:21:35 AM 38.8339 -84.7731 324° Northwest 281 323 7,900 -1,150 Descending Indianapolis Center
Fri 01:22:35 AM 38.9000 -84.8333 325° Northwest 266 306 6,600 -950 Descending Cincinnati TRACON
Fri 01:23:35 AM 38.9667 -84.8833 330° Northwest 232 267 6,000 -650 Descending Cincinnati TRACON
Fri 01:24:35 AM 39.0167 -84.9167 333° Northwest 198 228 5,300 -1,105 Descending Cincinnati TRACON
Fri 01:25:29 AM 39.0500 -84.8833 38° Northeast 208 239 3,900 -1,368 Descending Cincinnati TRACON
Fri 01:26:29 AM 39.0500 -84.8167 90° East 181 208 2,700 -1,000 Descending Cincinnati TRACON
Fri 01:27:35 AM 39.0500 -84.7500 90° East 152 175 1,800 -810 Descending Cincinnati TRACON
Fri 01:28:35 AM 39.0500 -84.7000 90° East 154 177 1,000 -800 Descending Cincinnati TRACON

Login

Don't have an account? Register now (free) for customized features, flight alerts, and more!